sensor_id;sensor_type;location;lat;lon;timestamp;pressure;altitude;pressure_sealevel;temperature;humidity
26436;BME280;15351;52.408;16.826;2023-08-08T00:05:11;100049.30;;;16.52;62.57
26436;BME280;15351;52.408;16.826;2023-08-08T00:08:28;100050.23;;;16.52;62.96
26436;BME280;15351;52.408;16.826;2023-08-08T00:11:06;100053.88;;;16.55;63.11
26436;BME280;15351;52.408;16.826;2023-08-08T00:13:45;100054.35;;;16.57;63.07
26436;BME280;15351;52.408;16.826;2023-08-08T00:16:44;100053.48;;;16.57;63.48
26436;BME280;15351;52.408;16.826;2023-08-08T00:19:57;100055.49;;;16.56;63.42
26436;BME280;15351;52.408;16.826;2023-08-08T00:22:29;100059.41;;;16.55;63.66
26436;BME280;15351;52.408;16.826;2023-08-08T00:25:02;100059.27;;;16.53;63.80
26436;BME280;15351;52.408;16.826;2023-08-08T00:27:56;100062.98;;;16.54;63.98
26436;BME280;15351;52.408;16.826;2023-08-08T00:30:36;100068.91;;;16.55;63.86
26436;BME280;15351;52.408;16.826;2023-08-08T00:33:09;100070.42;;;16.55;63.79
26436;BME280;15351;52.408;16.826;2023-08-08T00:36:03;100070.39;;;16.54;63.87
26436;BME280;15351;52.408;16.826;2023-08-08T00:38:35;100065.23;;;16.55;63.93
26436;BME280;15351;52.408;16.826;2023-08-08T00:41:28;100066.20;;;16.54;64.16
26436;BME280;15351;52.408;16.826;2023-08-08T00:44:15;100068.68;;;16.59;64.12
26436;BME280;15351;52.408;16.826;2023-08-08T00:46:58;100064.29;;;16.63;64.52
26436;BME280;15351;52.408;16.826;2023-08-08T00:49:44;100067.50;;;16.64;63.97
26436;BME280;15351;52.408;16.826;2023-08-08T00:55:00;100070.18;;;16.65;64.14
26436;BME280;15351;52.408;16.826;2023-08-08T00:57:34;100071.75;;;16.64;64.20
26436;BME280;15351;52.408;16.826;2023-08-08T01:00:32;100072.09;;;16.67;64.22
26436;BME280;15351;52.408;16.826;2023-08-08T01:03:25;100069.16;;;16.73;64.39
26436;BME280;15351;52.408;16.826;2023-08-08T01:06:05;100066.32;;;16.76;64.22
26436;BME280;15351;52.408;16.826;2023-08-08T01:08:54;100060.74;;;16.76;64.00
26436;BME280;15351;52.408;16.826;2023-08-08T01:11:40;100064.05;;;16.78;64.10
26436;BME280;15351;52.408;16.826;2023-08-08T01:14:25;100062.85;;;16.76;64.35
26436;BME280;15351;52.408;16.826;2023-08-08T01:16:56;100065.25;;;16.75;64.48
26436;BME280;15351;52.408;16.826;2023-08-08T01:20:02;100065.79;;;16.75;64.36
26436;BME280;15351;52.408;16.826;2023-08-08T01:26:45;100054.32;;;16.72;64.00
26436;BME280;15351;52.408;16.826;2023-08-08T01:29:12;100058.12;;;16.74;64.21
26436;BME280;15351;52.408;16.826;2023-08-08T01:32:08;100059.54;;;16.73;64.13
26436;BME280;15351;52.408;16.826;2023-08-08T01:34:54;100058.66;;;16.74;63.95
26436;BME280;15351;52.408;16.826;2023-08-08T01:37:57;100059.30;;;16.73;63.95
26436;BME280;15351;52.408;16.826;2023-08-08T01:40:43;100057.35;;;16.73;64.00
26436;BME280;15351;52.408;16.826;2023-08-08T01:43:15;100056.58;;;16.68;63.89
26436;BME280;15351;52.408;16.826;2023-08-08T01:45:58;100055.38;;;16.65;63.76
26436;BME280;15351;52.408;16.826;2023-08-08T01:48:30;100049.70;;;16.65;63.88
26436;BME280;15351;52.408;16.826;2023-08-08T01:51:50;100054.96;;;16.66;64.15
26436;BME280;15351;52.408;16.826;2023-08-08T01:57:10;100053.84;;;16.61;63.65
26436;BME280;15351;52.408;16.826;2023-08-08T02:00:07;100051.73;;;16.57;63.83
26436;BME280;15351;52.408;16.826;2023-08-08T02:06:09;100058.89;;;16.52;64.04
26436;BME280;15351;52.408;16.826;2023-08-08T02:11:47;100065.91;;;16.50;64.01
26436;BME280;15351;52.408;16.826;2023-08-08T02:17:17;100063.87;;;16.44;64.38
26436;BME280;15351;52.408;16.826;2023-08-08T02:19:51;100063.80;;;16.41;64.58
26436;BME280;15351;52.408;16.826;2023-08-08T02:22:49;100062.98;;;16.38;64.72
26436;BME280;15351;52.408;16.826;2023-08-08T02:28:44;100064.76;;;16.45;64.92
26436;BME280;15351;52.408;16.826;2023-08-08T02:31:43;100066.80;;;16.44;65.20
26436;BME280;15351;52.408;16.826;2023-08-08T02:35:04;100067.52;;;16.43;65.16
26436;BME280;15351;52.408;16.826;2023-08-08T02:38:05;100071.46;;;16.43;65.17
26436;BME280;15351;52.408;16.826;2023-08-08T02:43:47;100071.10;;;16.38;65.56
26436;BME280;15351;52.408;16.826;2023-08-08T02:46:18;100072.93;;;16.39;65.55
26436;BME280;15351;52.408;16.826;2023-08-08T02:48:56;100071.61;;;16.38;65.68
26436;BME280;15351;52.408;16.826;2023-08-08T02:51:32;100076.47;;;16.38;65.75
26436;BME280;15351;52.408;16.826;2023-08-08T02:54:37;100080.09;;;16.37;65.97
26436;BME280;15351;52.408;16.826;2023-08-08T02:57:13;100091.16;;;16.35;66.15
26436;BME280;15351;52.408;16.826;2023-08-08T03:00:12;100095.67;;;16.32;65.88
26436;BME280;15351;52.408;16.826;2023-08-08T03:03:03;100094.32;;;16.29;65.96
26436;BME280;15351;52.408;16.826;2023-08-08T03:05:56;100097.35;;;16.23;66.21
26436;BME280;15351;52.408;16.826;2023-08-08T03:08:55;100096.34;;;16.24;66.47
26436;BME280;15351;52.408;16.826;2023-08-08T03:11:41;100099.64;;;16.23;66.61
26436;BME280;15351;52.408;16.826;2023-08-08T03:14:30;100094.36;;;16.20;66.80
26436;BME280;15351;52.408;16.826;2023-08-08T03:17:27;100100.70;;;16.19;66.79
26436;BME280;15351;52.408;16.826;2023-08-08T03:20:23;100103.41;;;16.19;66.66
26436;BME280;15351;52.408;16.826;2023-08-08T03:22:52;100105.19;;;16.16;67.23
26436;BME280;15351;52.408;16.826;2023-08-08T03:25:51;100106.96;;;16.14;67.19
26436;BME280;15351;52.408;16.826;2023-08-08T03:28:30;100106.30;;;16.12;66.98
26436;BME280;15351;52.408;16.826;2023-08-08T03:31:01;100105.02;;;16.10;67.16
26436;BME280;15351;52.408;16.826;2023-08-08T03:33:35;100109.15;;;16.12;67.26
26436;BME280;15351;52.408;16.826;2023-08-08T03:36:05;100109.03;;;16.13;67.06
26436;BME280;15351;52.408;16.826;2023-08-08T03:38:39;100114.13;;;16.14;67.06
26436;BME280;15351;52.408;16.826;2023-08-08T03:41:06;100110.67;;;16.12;67.31
26436;BME280;15351;52.408;16.826;2023-08-08T03:43:35;100114.27;;;16.11;67.11
26436;BME280;15351;52.408;16.826;2023-08-08T03:46:03;100115.67;;;16.06;66.90
26436;BME280;15351;52.408;16.826;2023-08-08T03:48:33;100121.33;;;16.03;66.90
26436;BME280;15351;52.408;16.826;2023-08-08T03:51:13;100120.52;;;16.01;67.23
26436;BME280;15351;52.408;16.826;2023-08-08T03:53:40;100124.38;;;16.01;67.17
26436;BME280;15351;52.408;16.826;2023-08-08T03:56:28;100122.09;;;16.01;67.04
26436;BME280;15351;52.408;16.826;2023-08-08T03:59:17;100123.70;;;16.02;67.27
26436;BME280;15351;52.408;16.826;2023-08-08T04:02:17;100124.77;;;16.00;67.41
26436;BME280;15351;52.408;16.826;2023-08-08T04:07:53;100127.70;;;16.05;67.30
26436;BME280;15351;52.408;16.826;2023-08-08T04:10:24;100131.45;;;16.06;67.00
26436;BME280;15351;52.408;16.826;2023-08-08T04:12:54;100133.30;;;16.06;66.93
26436;BME280;15351;52.408;16.826;2023-08-08T04:15:28;100134.09;;;16.06;67.04
26436;BME280;15351;52.408;16.826;2023-08-08T04:17:54;100139.53;;;16.06;67.00
26436;BME280;15351;52.408;16.826;2023-08-08T04:20:39;100140.33;;;16.08;67.10
26436;BME280;15351;52.408;16.826;2023-08-08T04:23:24;100142.59;;;16.07;66.89
26436;BME280;15351;52.408;16.826;2023-08-08T04:26:03;100142.09;;;16.07;66.92
26436;BME280;15351;52.408;16.826;2023-08-08T04:28:34;100144.05;;;16.06;66.84
26436;BME280;15351;52.408;16.826;2023-08-08T04:31:04;100143.67;;;16.06;66.83
26436;BME280;15351;52.408;16.826;2023-08-08T04:33:35;100140.91;;;16.06;67.01
26436;BME280;15351;52.408;16.826;2023-08-08T04:36:07;100149.61;;;16.09;66.55
26436;BME280;15351;52.408;16.826;2023-08-08T04:38:46;100148.70;;;16.06;66.79
26436;BME280;15351;52.408;16.826;2023-08-08T04:41:19;100151.76;;;16.06;66.58
26436;BME280;15351;52.408;16.826;2023-08-08T04:44:10;100156.66;;;16.06;66.64
26436;BME280;15351;52.408;16.826;2023-08-08T04:46:36;100152.20;;;16.08;66.68
26436;BME280;15351;52.408;16.826;2023-08-08T04:49:06;100158.17;;;16.11;66.38
26436;BME280;15351;52.408;16.826;2023-08-08T04:51:54;100150.79;;;16.07;65.94
26436;BME280;15351;52.408;16.826;2023-08-08T04:54:29;100156.11;;;16.06;65.47
26436;BME280;15351;52.408;16.826;2023-08-08T05:00:19;100162.27;;;16.01;65.69
26436;BME280;15351;52.408;16.826;2023-08-08T05:02:49;100160.98;;;16.04;65.71
26436;BME280;15351;52.408;16.826;2023-08-08T05:05:19;100162.92;;;16.08;65.47
26436;BME280;15351;52.408;16.826;2023-08-08T05:07:54;100166.85;;;16.10;65.27
26436;BME280;15351;52.408;16.826;2023-08-08T05:13:22;100166.65;;;16.09;64.75
26436;BME280;15351;52.408;16.826;2023-08-08T05:15:48;100168.30;;;16.05;64.84
26436;BME280;15351;52.408;16.826;2023-08-08T05:18:18;100170.58;;;16.04;64.64
26436;BME280;15351;52.408;16.826;2023-08-08T05:21:22;100173.27;;;16.08;65.09
26436;BME280;15351;52.408;16.826;2023-08-08T05:24:17;100170.66;;;16.16;65.02
26436;BME280;15351;52.408;16.826;2023-08-08T05:27:05;100170.50;;;16.19;64.47
26436;BME280;15351;52.408;16.826;2023-08-08T05:29:59;100171.04;;;16.21;64.38
26436;BME280;15351;52.408;16.826;2023-08-08T05:37:23;100172.17;;;16.12;63.34
26436;BME280;15351;52.408;16.826;2023-08-08T05:40:28;100181.89;;;16.13;63.80
26436;BME280;15351;52.408;16.826;2023-08-08T05:43:43;100186.24;;;16.13;63.47
26436;BME280;15351;52.408;16.826;2023-08-08T05:46:22;100181.73;;;16.17;63.39
26436;BME280;15351;52.408;16.826;2023-08-08T05:48:58;100178.78;;;16.21;63.24
26436;BME280;15351;52.408;16.826;2023-08-08T05:51:27;100181.44;;;16.24;62.96
26436;BME280;15351;52.408;16.826;2023-08-08T05:54:08;100178.48;;;16.25;62.93
26436;BME280;15351;52.408;16.826;2023-08-08T05:56:46;100180.20;;;16.21;62.98
26436;BME280;15351;52.408;16.826;2023-08-08T05:59:37;100176.40;;;16.20;63.10
26436;BME280;15351;52.408;16.826;2023-08-08T06:02:27;100180.45;;;16.22;63.25
26436;BME280;15351;52.408;16.826;2023-08-08T06:04:54;100188.77;;;16.26;63.27
26436;BME280;15351;52.408;16.826;2023-08-08T06:07:44;100194.85;;;16.28;63.15
26436;BME280;15351;52.408;16.826;2023-08-08T06:10:14;100194.55;;;16.29;62.99
26436;BME280;15351;52.408;16.826;2023-08-08T06:12:57;100199.60;;;16.31;63.10
26436;BME280;15351;52.408;16.826;2023-08-08T06:15:24;100200.27;;;16.30;63.08
26436;BME280;15351;52.408;16.826;2023-08-08T06:18:16;100201.46;;;16.27;63.19
26436;BME280;15351;52.408;16.826;2023-08-08T06:20:43;100204.98;;;16.28;63.59
26436;BME280;15351;52.408;16.826;2023-08-08T06:23:27;100210.19;;;16.32;63.70
26436;BME280;15351;52.408;16.826;2023-08-08T06:26:02;100208.95;;;16.35;63.86
26436;BME280;15351;52.408;16.826;2023-08-08T06:28:33;100210.63;;;16.41;63.66
26436;BME280;15351;52.408;16.826;2023-08-08T06:31:07;100211.38;;;16.46;63.79
26436;BME280;15351;52.408;16.826;2023-08-08T06:34:25;100212.21;;;16.52;63.73
26436;BME280;15351;52.408;16.826;2023-08-08T06:36:54;100214.40;;;16.59;64.13
26436;BME280;15351;52.408;16.826;2023-08-08T06:39:23;100211.36;;;16.61;63.94
26436;BME280;15351;52.408;16.826;2023-08-08T06:42:29;100211.03;;;16.65;64.03
26436;BME280;15351;52.408;16.826;2023-08-08T06:45:34;100220.52;;;16.77;64.06
26436;BME280;15351;52.408;16.826;2023-08-08T06:48:18;100220.13;;;16.80;63.89
26436;BME280;15351;52.408;16.826;2023-08-08T06:51:08;100222.92;;;16.82;63.48
26436;BME280;15351;52.408;16.826;2023-08-08T06:54:01;100217.40;;;16.85;64.00
26436;BME280;15351;52.408;16.826;2023-08-08T07:00:23;100215.19;;;17.00;63.76
26436;BME280;15351;52.408;16.826;2023-08-08T07:04:10;100217.41;;;17.05;63.66
26436;BME280;15351;52.408;16.826;2023-08-08T07:11:23;100211.85;;;17.12;63.95
26436;BME280;15351;52.408;16.826;2023-08-08T07:14:17;100225.39;;;17.20;63.67
26436;BME280;15351;52.408;16.826;2023-08-08T07:17:08;100225.30;;;17.30;63.94
26436;BME280;15351;52.408;16.826;2023-08-08T07:20:23;100221.87;;;17.43;63.46
26436;BME280;15351;52.408;16.826;2023-08-08T07:22:54;100219.67;;;17.54;63.43
26436;BME280;15351;52.408;16.826;2023-08-08T07:30:18;100224.88;;;17.71;63.26
26436;BME280;15351;52.408;16.826;2023-08-08T07:37:12;100225.28;;;17.72;62.20
26436;BME280;15351;52.408;16.826;2023-08-08T07:40:21;100229.98;;;17.72;62.58
26436;BME280;15351;52.408;16.826;2023-08-08T07:43:39;100221.73;;;17.70;62.93
26436;BME280;15351;52.408;16.826;2023-08-08T07:54:34;100243.23;;;17.87;62.53
26436;BME280;15351;52.408;16.826;2023-08-08T08:01:10;100241.38;;;17.81;62.49
26436;BME280;15351;52.408;16.826;2023-08-08T08:07:27;100242.94;;;17.77;62.05
26436;BME280;15351;52.408;16.826;2023-08-08T08:14:19;100243.55;;;17.72;62.43
26436;BME280;15351;52.408;16.826;2023-08-08T08:17:51;100246.91;;;17.78;62.36
26436;BME280;15351;52.408;16.826;2023-08-08T08:21:55;100244.81;;;17.97;62.35
26436;BME280;15351;52.408;16.826;2023-08-08T08:25:35;100246.42;;;18.10;62.19
26436;BME280;15351;52.408;16.826;2023-08-08T08:33:14;100242.20;;;18.36;62.04
26436;BME280;15351;52.408;16.826;2023-08-08T08:41:06;100246.08;;;18.46;61.29
26436;BME280;15351;52.408;16.826;2023-08-08T09:03:16;100242.61;;;18.13;60.99
26436;BME280;15351;52.408;16.826;2023-08-08T09:05:51;100239.63;;;18.03;60.80
26436;BME280;15351;52.408;16.826;2023-08-08T09:08:22;100246.93;;;18.04;61.23
26436;BME280;15351;52.408;16.826;2023-08-08T09:10:52;100245.59;;;18.03;60.90
26436;BME280;15351;52.408;16.826;2023-08-08T09:13:20;100254.41;;;17.98;60.81
26436;BME280;15351;52.408;16.826;2023-08-08T09:16:24;100252.00;;;18.01;61.09
26436;BME280;15351;52.408;16.826;2023-08-08T09:19:15;100249.30;;;18.05;61.14
26436;BME280;15351;52.408;16.826;2023-08-08T09:21:47;100257.52;;;18.03;61.06
26436;BME280;15351;52.408;16.826;2023-08-08T09:25:17;100257.73;;;18.00;60.71
26436;BME280;15351;52.408;16.826;2023-08-08T09:34:29;100250.79;;;18.14;60.72
26436;BME280;15351;52.408;16.826;2023-08-08T09:44:57;100249.04;;;18.37;59.70
26436;BME280;15351;52.408;16.826;2023-08-08T09:48:31;100245.89;;;18.49;59.17
26436;BME280;15351;52.408;16.826;2023-08-08T10:07:00;100229.94;;;19.42;57.96
26436;BME280;15351;52.408;16.826;2023-08-08T10:15:47;100225.38;;;20.11;56.73
26436;BME280;15351;52.408;16.826;2023-08-08T10:18:36;100223.19;;;20.19;55.67
26436;BME280;15351;52.408;16.826;2023-08-08T10:21:43;100223.08;;;20.21;55.16
26436;BME280;15351;52.408;16.826;2023-08-08T10:24:35;100226.95;;;20.19;54.85
26436;BME280;15351;52.408;16.826;2023-08-08T10:27:36;100234.86;;;20.13;54.39
26436;BME280;15351;52.408;16.826;2023-08-08T10:30:20;100232.77;;;20.03;54.34
26436;BME280;15351;52.408;16.826;2023-08-08T10:33:01;100240.17;;;19.96;54.53
26436;BME280;15351;52.408;16.826;2023-08-08T10:39:07;100227.11;;;19.95;55.53
26436;BME280;15351;52.408;16.826;2023-08-08T10:42:18;100230.11;;;20.03;55.89
26436;BME280;15351;52.408;16.826;2023-08-08T10:45:28;100223.91;;;20.13;55.98
26436;BME280;15351;52.408;16.826;2023-08-08T10:48:10;100224.70;;;20.14;55.22
26436;BME280;15351;52.408;16.826;2023-08-08T10:54:51;100224.46;;;20.11;54.53
26436;BME280;15351;52.408;16.826;2023-08-08T10:58:23;100217.35;;;20.16;54.63
26436;BME280;15351;52.408;16.826;2023-08-08T11:00:56;100215.45;;;20.32;54.78
26436;BME280;15351;52.408;16.826;2023-08-08T11:03:47;100209.97;;;20.51;54.97
26436;BME280;15351;52.408;16.826;2023-08-08T11:06:17;100208.21;;;20.73;54.90
26436;BME280;15351;52.408;16.826;2023-08-08T11:08:56;100200.44;;;20.93;54.80
26436;BME280;15351;52.408;16.826;2023-08-08T11:11:26;100197.15;;;21.14;54.42
26436;BME280;15351;52.408;16.826;2023-08-08T11:13:54;100194.61;;;21.33;54.20
26436;BME280;15351;52.408;16.826;2023-08-08T11:16:21;100194.66;;;21.40;53.46
26436;BME280;15351;52.408;16.826;2023-08-08T11:18:58;100187.11;;;21.44;52.92
26436;BME280;15351;52.408;16.826;2023-08-08T11:21:35;100189.40;;;21.53;52.52
26436;BME280;15351;52.408;16.826;2023-08-08T11:24:07;100193.37;;;21.54;52.11
26436;BME280;15351;52.408;16.826;2023-08-08T11:26:36;100195.30;;;21.60;52.24
26436;BME280;15351;52.408;16.826;2023-08-08T11:29:05;100191.36;;;21.65;52.20
26436;BME280;15351;52.408;16.826;2023-08-08T11:31:39;100187.91;;;21.66;51.96
26436;BME280;15351;52.408;16.826;2023-08-08T11:34:09;100193.23;;;21.62;51.52
26436;BME280;15351;52.408;16.826;2023-08-08T11:36:39;100192.79;;;21.48;50.94
26436;BME280;15351;52.408;16.826;2023-08-08T11:39:10;100204.21;;;21.36;50.65
26436;BME280;15351;52.408;16.826;2023-08-08T11:41:38;100218.06;;;21.24;50.91
26436;BME280;15351;52.408;16.826;2023-08-08T11:44:33;100217.02;;;21.11;51.51
26436;BME280;15351;52.408;16.826;2023-08-08T11:47:26;100232.04;;;20.95;52.17
26436;BME280;15351;52.408;16.826;2023-08-08T11:50:11;100233.66;;;20.73;51.20
26436;BME280;15351;52.408;16.826;2023-08-08T11:55:58;100252.14;;;20.23;51.14
26436;BME280;15351;52.408;16.826;2023-08-08T11:58:26;100249.02;;;20.06;51.41
26436;BME280;15351;52.408;16.826;2023-08-08T12:01:03;100248.34;;;20.01;52.33
26436;BME280;15351;52.408;16.826;2023-08-08T12:03:57;100242.21;;;20.11;53.73
26436;BME280;15351;52.408;16.826;2023-08-08T12:06:31;100236.55;;;20.29;54.50
26436;BME280;15351;52.408;16.826;2023-08-08T12:09:06;100234.52;;;20.48;55.25
26436;BME280;15351;52.408;16.826;2023-08-08T12:11:41;100234.13;;;20.65;55.40
26436;BME280;15351;52.408;16.826;2023-08-08T12:14:19;100231.56;;;20.83;55.46
26436;BME280;15351;52.408;16.826;2023-08-08T12:16:59;100227.59;;;21.01;55.75
26436;BME280;15351;52.408;16.826;2023-08-08T12:19:47;100229.71;;;21.15;55.16
26436;BME280;15351;52.408;16.826;2023-08-08T12:22:28;100224.33;;;21.22;54.90
26436;BME280;15351;52.408;16.826;2023-08-08T12:25:02;100219.94;;;21.25;54.69
26436;BME280;15351;52.408;16.826;2023-08-08T12:27:50;100225.67;;;21.27;54.78
26436;BME280;15351;52.408;16.826;2023-08-08T12:30:29;100229.73;;;21.23;54.40
26436;BME280;15351;52.408;16.826;2023-08-08T12:37:01;100239.54;;;21.06;54.79
26436;BME280;15351;52.408;16.826;2023-08-08T12:39:47;100237.08;;;21.03;54.92
26436;BME280;15351;52.408;16.826;2023-08-08T12:42:39;100246.11;;;21.05;54.74
26436;BME280;15351;52.408;16.826;2023-08-08T12:45:31;100242.99;;;21.03;53.61
26436;BME280;15351;52.408;16.826;2023-08-08T12:48:13;100241.20;;;20.96;53.12
26436;BME280;15351;52.408;16.826;2023-08-08T12:51:29;100239.30;;;20.99;53.74
26436;BME280;15351;52.408;16.826;2023-08-08T12:54:51;100237.39;;;21.14;53.89
26436;BME280;15351;52.408;16.826;2023-08-08T13:00:32;100229.98;;;21.31;53.68
26436;BME280;15351;52.408;16.826;2023-08-08T13:03:05;100232.11;;;21.37;53.44
26436;BME280;15351;52.408;16.826;2023-08-08T13:05:49;100229.73;;;21.42;53.80
26436;BME280;15351;52.408;16.826;2023-08-08T13:08:30;100226.31;;;21.47;54.01
26436;BME280;15351;52.408;16.826;2023-08-08T13:11:39;100223.52;;;21.55;54.11
26436;BME280;15351;52.408;16.826;2023-08-08T13:14:32;100217.36;;;21.63;54.17
26436;BME280;15351;52.408;16.826;2023-08-08T13:17:09;100211.02;;;21.72;54.37
26436;BME280;15351;52.408;16.826;2023-08-08T13:19:55;100213.55;;;21.78;53.69
26436;BME280;15351;52.408;16.826;2023-08-08T13:22:30;100209.59;;;21.83;53.55
26436;BME280;15351;52.408;16.826;2023-08-08T13:25:13;100209.63;;;21.86;53.09
26436;BME280;15351;52.408;16.826;2023-08-08T13:27:52;100210.15;;;21.87;52.61
26436;BME280;15351;52.408;16.826;2023-08-08T13:30:30;100204.80;;;21.90;52.59
26436;BME280;15351;52.408;16.826;2023-08-08T13:33:11;100206.07;;;21.94;52.99
26436;BME280;15351;52.408;16.826;2023-08-08T13:36:02;100196.95;;;21.98;52.79
26436;BME280;15351;52.408;16.826;2023-08-08T13:38:30;100194.96;;;21.98;53.10
26436;BME280;15351;52.408;16.826;2023-08-08T13:40:57;100194.31;;;21.99;53.15
26436;BME280;15351;52.408;16.826;2023-08-08T13:43:29;100197.01;;;21.95;52.81
26436;BME280;15351;52.408;16.826;2023-08-08T13:46:00;100195.64;;;21.87;52.30
26436;BME280;15351;52.408;16.826;2023-08-08T13:48:32;100199.83;;;21.80;52.22
26436;BME280;15351;52.408;16.826;2023-08-08T13:51:02;100196.62;;;21.72;52.19
26436;BME280;15351;52.408;16.826;2023-08-08T13:53:33;100195.88;;;21.66;52.63
26436;BME280;15351;52.408;16.826;2023-08-08T13:56:03;100194.73;;;21.63;52.72
26436;BME280;15351;52.408;16.826;2023-08-08T13:58:50;100193.53;;;21.58;52.97
26436;BME280;15351;52.408;16.826;2023-08-08T14:01:20;100191.23;;;21.60;52.64
26436;BME280;15351;52.408;16.826;2023-08-08T14:03:50;100197.48;;;21.62;52.57
26436;BME280;15351;52.408;16.826;2023-08-08T14:06:25;100191.41;;;21.65;52.74
26436;BME280;15351;52.408;16.826;2023-08-08T14:09:01;100191.69;;;21.70;53.31
26436;BME280;15351;52.408;16.826;2023-08-08T14:11:32;100197.16;;;21.73;53.03
26436;BME280;15351;52.408;16.826;2023-08-08T14:13:59;100204.59;;;21.69;52.57
26436;BME280;15351;52.408;16.826;2023-08-08T14:16:32;100211.35;;;21.62;52.53
26436;BME280;15351;52.408;16.826;2023-08-08T14:19:22;100234.66;;;21.50;52.34
26436;BME280;15351;52.408;16.826;2023-08-08T14:21:49;100242.86;;;21.10;53.35
26436;BME280;15351;52.408;16.826;2023-08-08T14:24:17;100237.69;;;20.70;54.32
26436;BME280;15351;52.408;16.826;2023-08-08T14:26:44;100239.42;;;20.47;55.11
26436;BME280;15351;52.408;16.826;2023-08-08T14:29:13;100239.10;;;20.31;55.35
26436;BME280;15351;52.408;16.826;2023-08-08T14:31:40;100232.52;;;20.18;55.29
26436;BME280;15351;52.408;16.826;2023-08-08T14:34:07;100233.71;;;20.08;55.29
26436;BME280;15351;52.408;16.826;2023-08-08T14:36:34;100230.18;;;20.06;55.89
26436;BME280;15351;52.408;16.826;2023-08-08T14:39:11;100232.77;;;20.04;56.06
26436;BME280;15351;52.408;16.826;2023-08-08T14:41:40;100234.91;;;20.01;55.84
26436;BME280;15351;52.408;16.826;2023-08-08T14:44:07;100232.19;;;20.02;55.94
26436;BME280;15351;52.408;16.826;2023-08-08T14:46:45;100231.23;;;20.12;55.98
26436;BME280;15351;52.408;16.826;2023-08-08T14:49:12;100232.80;;;20.23;55.74
26436;BME280;15351;52.408;16.826;2023-08-08T14:54:35;100231.73;;;20.39;55.82
26436;BME280;15351;52.408;16.826;2023-08-08T14:57:17;100230.02;;;20.45;55.94
26436;BME280;15351;52.408;16.826;2023-08-08T14:59:49;100225.78;;;20.50;56.16
26436;BME280;15351;52.408;16.826;2023-08-08T15:02:42;100220.69;;;20.52;56.43
26436;BME280;15351;52.408;16.826;2023-08-08T15:05:17;100224.00;;;20.46;56.79
26436;BME280;15351;52.408;16.826;2023-08-08T15:07:49;100227.54;;;20.40;56.88
26436;BME280;15351;52.408;16.826;2023-08-08T15:10:24;100228.25;;;20.35;57.06
26436;BME280;15351;52.408;16.826;2023-08-08T15:12:55;100228.85;;;20.31;57.53
26436;BME280;15351;52.408;16.826;2023-08-08T15:15:34;100231.48;;;20.26;57.88
26436;BME280;15351;52.408;16.826;2023-08-08T15:18:07;100235.08;;;20.22;57.91
26436;BME280;15351;52.408;16.826;2023-08-08T15:20:41;100234.67;;;20.21;58.25
26436;BME280;15351;52.408;16.826;2023-08-08T15:23:20;100236.67;;;20.22;58.44
26436;BME280;15351;52.408;16.826;2023-08-08T15:25:53;100252.17;;;20.19;58.04
26436;BME280;15351;52.408;16.826;2023-08-08T15:28:53;100284.48;;;20.09;58.25
26436;BME280;15351;52.408;16.826;2023-08-08T15:31:29;100325.69;;;19.98;59.66
26436;BME280;15351;52.408;16.826;2023-08-08T15:33:59;100340.77;;;19.92;60.69
26436;BME280;15351;52.408;16.826;2023-08-08T15:36:32;100353.21;;;19.76;61.16
26436;BME280;15351;52.408;16.826;2023-08-08T15:39:05;100354.45;;;19.42;61.41
26436;BME280;15351;52.408;16.826;2023-08-08T15:41:32;100348.95;;;19.15;62.59
26436;BME280;15351;52.408;16.826;2023-08-08T15:44:11;100342.01;;;19.00;63.72
26436;BME280;15351;52.408;16.826;2023-08-08T15:47:01;100321.35;;;18.95;64.38
26436;BME280;15351;52.408;16.826;2023-08-08T15:50:13;100311.98;;;18.85;65.03
26436;BME280;15351;52.408;16.826;2023-08-08T15:52:57;100299.63;;;18.75;65.76
26436;BME280;15351;52.408;16.826;2023-08-08T15:55:32;100289.95;;;18.66;66.70
26436;BME280;15351;52.408;16.826;2023-08-08T16:01:22;100282.39;;;18.50;68.20
26436;BME280;15351;52.408;16.826;2023-08-08T16:03:51;100282.19;;;18.49;68.45
26436;BME280;15351;52.408;16.826;2023-08-08T16:06:24;100282.20;;;18.54;68.83
26436;BME280;15351;52.408;16.826;2023-08-08T16:09:11;100276.86;;;18.51;68.95
26436;BME280;15351;52.408;16.826;2023-08-08T16:11:39;100283.59;;;18.40;69.30
26436;BME280;15351;52.408;16.826;2023-08-08T16:14:06;100276.77;;;18.44;69.90
26436;BME280;15351;52.408;16.826;2023-08-08T16:16:43;100275.66;;;18.52;70.48
26436;BME280;15351;52.408;16.826;2023-08-08T16:19:28;100284.59;;;18.55;70.38
26436;BME280;15351;52.408;16.826;2023-08-08T16:21:55;100279.76;;;18.48;70.24
26436;BME280;15351;52.408;16.826;2023-08-08T16:24:22;100283.02;;;18.45;70.43
26436;BME280;15351;52.408;16.826;2023-08-08T16:26:49;100276.67;;;18.32;71.11
26436;BME280;15351;52.408;16.826;2023-08-08T16:29:17;100282.14;;;18.25;71.43
26436;BME280;15351;52.408;16.826;2023-08-08T16:31:49;100294.13;;;18.17;72.10
26436;BME280;15351;52.408;16.826;2023-08-08T16:34:16;100296.51;;;18.13;72.40
26436;BME280;15351;52.408;16.826;2023-08-08T16:36:44;100295.17;;;18.09;72.98
26436;BME280;15351;52.408;16.826;2023-08-08T16:39:11;100290.55;;;18.09;73.18
26436;BME280;15351;52.408;16.826;2023-08-08T16:41:39;100291.82;;;18.12;73.37
26436;BME280;15351;52.408;16.826;2023-08-08T16:44:06;100288.70;;;18.13;73.59
26436;BME280;15351;52.408;16.826;2023-08-08T16:46:33;100288.48;;;18.10;73.25